Alpental, Washington
Current Conditions -  °F | °C
As of 11:31 PM on Friday 28 Nov 2014 (Local Time) from KRNT Reporting Station
Overcast Overcast  
Wind Chill: 36°   Ceiling: 2000
Heat Index: 41°   Visibility: 10mi
Dew Point: 38°   Wind: 8mph
Humidity: 89%   Direction: 150°SSE
Pressure: 29.53"   Gusts: NA
Location:  47.4076°N, 121.414°W
Report Text: KRNT 290731Z AUTO 15007KT 10SM BKN020 BKN025 OVC095 05/03 A2953 RMK AO2 T00500033
Loading
Personal Weather Stations






























Interactive Weather Map New forecast layout! Learn more

10-Day Weather Forecast

Advertisements
Track Severe Weather on mobile